Time;durP1;ratioP1;P1;durP2;ratioP2;P2;SDS_P1;SDS_P2;PMS_P1;PMS_P2;Temp;Humidity;BMP_temperature;BMP_pressure;BME280_temperature;BME280_humidity;BME280_pressure;Samples;Min_cycle;Max_cycle;Signal;HPM_P1;HPM_P2
2021/11/30 00:00:59;0.00;0.00;0.62;0.00;0.00;0.62;4.23;3.83;;;20.70;26.30;;;;;;2221964;62;20435;-65
2021/11/30 00:03:46;0.00;0.00;0.62;0.00;0.00;0.62;4.60;4.20;;;20.60;26.10;;;;;;2220802;62;20374;-65
2021/11/30 00:06:35;0.00;0.00;0.62;0.00;0.00;0.62;4.20;3.80;;;20.60;25.90;;;;;;2222068;62;20375;-66
2021/11/30 00:10:43;0.00;0.00;0.62;0.00;0.00;0.62;4.47;4.07;;;20.50;25.90;;;;;;2221431;62;20396;-65
2021/11/30 00:12:29;0.00;0.00;0.62;0.00;0.00;0.62;5.13;4.63;;;20.50;25.80;;;;;;2221618;62;20479;-65
2021/11/30 00:15:14;0.00;0.00;0.62;0.00;0.00;0.62;6.30;5.40;;;20.40;25.80;;;;;;2222080;62;20443;-64
2021/11/30 00:18:00;0.00;0.00;0.62;0.00;0.00;0.62;5.37;4.90;;;20.40;25.80;;;;;;2220706;62;20363;-66
2021/11/30 00:20:46;0.00;0.00;0.62;0.00;0.00;0.62;6.47;5.87;;;20.30;25.60;;;;;;2222193;62;20580;-65
2021/11/30 00:23:35;0.00;0.00;0.62;0.00;0.00;0.62;5.80;4.97;;;20.20;25.60;;;;;;2222595;62;20359;-66
2021/11/30 00:26:21;0.00;0.00;0.62;0.00;0.00;0.62;6.20;5.60;;;20.20;25.60;;;;;;2221885;62;20411;-64
2021/11/30 00:29:07;0.00;0.00;0.62;0.00;0.00;0.62;6.13;5.53;;;20.10;25.50;;;;;;2222593;62;20402;-65
2021/11/30 00:31:53;0.00;0.00;0.62;0.00;0.00;0.62;6.30;5.77;;;20.00;25.40;;;;;;2224320;62;20777;-65
2021/11/30 00:34:39;0.00;0.00;0.62;0.00;0.00;0.62;6.87;6.17;;;20.00;25.40;;;;;;2224628;62;20394;-65
2021/11/30 00:37:25;0.00;0.00;0.62;0.00;0.00;0.62;7.60;6.53;;;19.90;25.50;;;;;;2222630;62;20730;-66
2021/11/30 00:40:12;0.00;0.00;0.62;0.00;0.00;0.62;7.90;6.63;;;19.90;25.40;;;;;;2221479;62;20375;-65
2021/11/30 00:42:59;0.00;0.00;0.62;0.00;0.00;0.62;7.23;6.53;;;19.80;25.40;;;;;;2222574;62;20467;-66
2021/11/30 00:45:53;0.00;0.00;0.62;0.00;0.00;0.62;7.60;6.90;;;19.80;25.40;;;;;;2222549;62;20514;-66
2021/11/30 00:48:39;0.00;0.00;0.62;0.00;0.00;0.62;6.80;6.20;;;19.70;25.40;;;;;;2221940;62;20412;-65
2021/11/30 00:51:25;0.00;0.00;0.62;0.00;0.00;0.62;6.80;6.20;;;19.60;25.40;;;;;;2222408;62;20770;-67
2021/11/30 00:54:14;0.00;0.00;0.62;0.00;0.00;0.62;9.17;6.93;;;19.60;25.40;;;;;;2222144;62;20363;-65
2021/11/30 00:57:01;0.00;0.00;0.62;0.00;0.00;0.62;7.90;7.10;;;19.50;25.40;;;;;;2222189;62;20396;-66
2021/11/30 00:59:47;0.00;0.00;0.62;0.00;0.00;0.62;8.00;7.10;;;19.50;25.40;;;;;;2222776;62;20652;-65
2021/11/30 01:02:32;0.00;0.00;0.62;0.00;0.00;0.62;8.80;6.83;;;19.40;25.40;;;;;;2221164;62;20652;-65
2021/11/30 01:05:18;0.00;0.00;0.62;0.00;0.00;0.62;7.97;7.27;;;19.40;25.40;;;;;;2222599;62;20362;-64
2021/11/30 01:08:04;0.00;0.00;0.62;0.00;0.00;0.62;7.63;6.87;;;19.30;25.40;;;;;;2222265;62;20367;-65
2021/11/30 01:10:51;0.00;0.00;0.62;0.00;0.00;0.62;7.77;7.07;;;19.30;25.50;;;;;;2221577;62;20371;-66
2021/11/30 01:13:38;0.00;0.00;0.62;0.00;0.00;0.62;8.73;7.03;;;19.30;25.50;;;;;;2222645;62;20391;-66
2021/11/30 01:16:24;0.00;0.00;0.62;0.00;0.00;0.62;7.80;6.97;;;19.20;25.90;;;;;;2221904;62;20383;-67
2021/11/30 01:19:09;0.00;0.00;0.62;0.00;0.00;0.62;7.73;6.93;;;19.20;25.50;;;;;;2222197;62;20367;-65
2021/11/30 01:21:55;0.00;0.00;0.62;0.00;0.00;0.62;7.90;7.03;;;19.10;25.40;;;;;;2222460;62;20467;-65
2021/11/30 01:24:40;0.00;0.00;0.62;0.00;0.00;0.62;9.87;7.30;;;19.10;25.50;;;;;;2221464;62;20572;-65
2021/11/30 01:27:26;0.00;0.00;0.62;0.00;0.00;0.62;10.50;6.90;;;19.00;25.40;;;;;;2222483;62;20449;-66
2021/11/30 01:30:15;0.00;0.00;0.62;0.00;0.00;0.62;7.70;6.90;;;19.00;25.50;;;;;;2222194;62;20375;-66
2021/11/30 01:33:01;0.00;0.00;0.62;0.00;0.00;0.62;6.70;6.00;;;19.00;25.60;;;;;;2221432;62;20428;-65
2021/11/30 01:35:48;0.00;0.00;0.62;0.00;0.00;0.62;7.10;6.50;;;18.90;25.60;;;;;;2222567;62;20367;-66
2021/11/30 01:38:34;0.00;0.00;0.62;0.00;0.00;0.62;7.03;6.33;;;18.90;25.70;;;;;;2221812;62;20363;-65
2021/11/30 01:41:19;0.00;0.00;0.62;0.00;0.00;0.62;7.20;6.43;;;18.80;25.80;;;;;;2221931;62;20390;-65
2021/11/30 01:44:09;0.00;0.00;0.62;0.00;0.00;0.62;7.60;6.00;;;18.80;25.80;;;;;;2222571;62;20362;-65
2021/11/30 01:47:08;0.00;0.00;0.62;0.00;0.00;0.62;7.10;6.40;;;18.80;25.80;;;;;;2221184;62;20592;-65
2021/11/30 01:49:53;0.00;0.00;0.62;0.00;0.00;0.62;6.90;6.30;;;18.70;25.70;;;;;;2222721;62;20375;-67
2021/11/30 01:52:38;0.00;0.00;0.62;0.00;0.00;0.62;9.90;5.87;;;18.70;25.70;;;;;;2221709;62;20406;-66
2021/11/30 01:55:24;0.00;0.00;0.62;0.00;0.00;0.62;6.60;5.90;;;18.70;25.70;;;;;;2221565;62;20715;-66
2021/11/30 01:58:09;0.00;0.00;0.62;0.00;0.00;0.62;8.37;6.40;;;18.60;25.60;;;;;;2222529;62;20375;-65
2021/11/30 02:00:54;0.00;0.00;0.62;0.00;0.00;0.62;9.00;6.40;;;18.60;25.60;;;;;;2221297;62;20359;-66
2021/11/30 02:03:41;0.00;0.00;0.62;0.00;0.00;0.62;7.40;6.30;;;18.60;25.60;;;;;;2222163;62;20597;-65
2021/11/30 02:06:26;0.00;0.00;0.62;0.00;0.00;0.62;6.30;5.70;;;18.50;25.50;;;;;;2222409;62;20399;-66
2021/11/30 02:09:11;0.00;0.00;0.62;0.00;0.00;0.62;6.00;5.40;;;18.50;25.50;;;;;;2220917;62;20549;-65
2021/11/30 02:11:56;0.00;0.00;0.62;0.00;0.00;0.62;8.40;5.20;;;18.50;25.50;;;;;;2222366;62;20399;-65
2021/11/30 02:14:45;0.00;0.00;0.62;0.00;0.00;0.62;7.83;5.27;;;18.50;25.50;;;;;;2221847;62;20662;-64
2021/11/30 02:17:30;0.00;0.00;0.62;0.00;0.00;0.62;7.23;5.20;;;18.40;25.50;;;;;;2221458;62;20599;-64
2021/11/30 02:20:16;0.00;0.00;0.62;0.00;0.00;0.62;5.80;4.73;;;18.40;25.50;;;;;;2222285;62;20372;-64
2021/11/30 02:23:01;0.00;0.00;0.62;0.00;0.00;0.62;5.13;4.40;;;18.30;25.50;;;;;;2221560;62;20382;-64
2021/11/30 02:25:46;0.00;0.00;0.62;0.00;0.00;0.62;4.63;3.87;;;18.30;25.60;;;;;;2222203;62;20363;-65
2021/11/30 02:28:31;0.00;0.00;0.62;0.00;0.00;0.62;4.30;3.90;;;18.30;25.60;;;;;;2222291;62;20389;-64
2021/11/30 02:31:20;0.00;0.00;0.62;0.00;0.00;0.62;4.70;4.30;;;18.20;25.60;;;;;;2221094;62;20390;-66
2021/11/30 02:34:05;0.00;0.00;0.62;0.00;0.00;0.62;5.30;3.93;;;18.20;25.70;;;;;;2222430;62;20719;-66
2021/11/30 02:36:53;0.00;0.00;0.62;0.00;0.00;0.62;4.40;3.40;;;18.20;25.70;;;;;;2221799;62;20408;-66
2021/11/30 02:39:39;0.00;0.00;0.62;0.00;0.00;0.62;4.47;3.20;;;18.10;25.70;;;;;;2221544;62;20370;-65
2021/11/30 02:42:23;0.00;0.00;0.62;0.00;0.00;0.62;3.40;3.10;;;18.10;25.80;;;;;;2222161;62;20414;-65
2021/11/30 02:45:10;0.00;0.00;0.62;0.00;0.00;0.62;3.37;3.07;;;18.10;25.80;;;;;;2221513;62;20727;-65
2021/11/30 02:47:55;0.00;0.00;0.62;0.00;0.00;0.62;3.90;3.17;;;18.10;25.80;;;;;;2224281;62;20371;-67
2021/11/30 02:50:42;0.00;0.00;0.62;0.00;0.00;0.62;2.57;2.37;;;18.00;25.80;;;;;;2222053;62;20408;-63
2021/11/30 02:53:28;0.00;0.00;0.62;0.00;0.00;0.62;2.70;2.20;;;18.00;25.90;;;;;;2220811;62;20398;-65
2021/11/30 02:56:13;0.00;0.00;0.62;0.00;0.00;0.62;4.27;2.67;;;18.00;25.90;;;;;;2222221;62;20392;-64
2021/11/30 02:58:57;0.00;0.00;0.62;0.00;0.00;0.62;3.80;2.63;;;17.90;26.30;;;;;;2222153;62;20368;-65
2021/11/30 03:01:51;0.00;0.00;0.62;0.00;0.00;0.62;4.73;3.03;;;17.90;25.80;;;;;;2221246;62;20436;-65
2021/11/30 03:04:37;0.00;0.00;0.62;0.00;0.00;0.62;2.43;2.23;;;17.90;25.80;;;;;;2222162;62;20431;-65
2021/11/30 03:07:25;0.00;0.00;0.62;0.00;0.00;0.62;2.53;2.20;;;17.80;25.70;;;;;;2221833;62;20564;-66
2021/11/30 03:10:14;0.00;0.00;0.62;0.00;0.00;0.62;3.90;1.83;;;17.80;25.80;;;;;;2221803;62;20384;-66
2021/11/30 03:12:59;0.00;0.00;0.62;0.00;0.00;0.62;2.53;2.20;;;17.70;25.80;;;;;;2222295;62;20399;-66
2021/11/30 03:15:44;0.00;0.00;0.62;0.00;0.00;0.62;1.80;1.63;;;17.70;25.90;;;;;;2220957;62;20424;-65
2021/11/30 03:18:29;0.00;0.00;0.62;0.00;0.00;0.62;3.30;1.53;;;17.70;25.90;;;;;;2222085;62;20363;-66
2021/11/30 03:21:14;0.00;0.00;0.62;0.00;0.00;0.62;2.37;1.87;;;17.60;25.80;;;;;;2221736;62;20399;-66
2021/11/30 03:23:59;0.00;0.00;0.62;0.00;0.00;0.62;3.37;1.97;;;17.60;25.90;;;;;;2221387;62;20362;-65
2021/11/30 03:26:46;0.00;0.00;0.62;0.00;0.00;0.62;2.87;2.00;;;17.60;25.90;;;;;;2221795;62;20387;-65
2021/11/30 03:29:30;0.00;0.00;0.62;0.00;0.00;0.62;3.20;2.03;;;17.60;25.90;;;;;;2221607;62;20366;-66
2021/11/30 03:35:20;0.00;0.00;0.62;0.00;0.00;0.62;2.23;1.80;;;17.50;25.80;;;;;;2221881;62;20389;-65
2021/11/30 03:38:04;0.00;0.00;0.62;0.00;0.00;0.62;1.80;1.40;;;17.50;25.80;;;;;;2220805;62;20718;-65
2021/11/30 03:40:49;0.00;0.00;0.62;0.00;0.00;0.62;1.70;1.30;;;17.50;25.80;;;;;;2221939;62;20362;-65
2021/11/30 03:43:36;0.00;0.00;0.62;0.00;0.00;0.62;3.50;1.87;;;17.40;25.80;;;;;;2221531;62;20367;-66
2021/11/30 03:46:22;0.00;0.00;0.62;0.00;0.00;0.62;2.43;1.60;;;17.30;25.80;;;;;;2221303;62;20383;-64
2021/11/30 03:49:10;0.00;0.00;0.62;0.00;0.00;0.62;2.27;1.47;;;17.30;25.80;;;;;;2222202;62;20374;-66
2021/11/30 03:51:55;0.00;0.00;0.62;0.00;0.00;0.62;3.00;1.70;;;17.30;25.80;;;;;;2220977;62;20607;-63
2021/11/30 03:54:40;0.00;0.00;0.62;0.00;0.00;0.62;2.83;1.63;;;17.30;25.80;;;;;;2221788;62;20375;-65
2021/11/30 03:57:25;0.00;0.00;0.62;0.00;0.00;0.62;2.10;1.53;;;17.30;25.80;;;;;;2222922;62;20396;-64
2021/11/30 04:00:13;0.00;0.00;0.62;0.00;0.00;0.62;3.47;1.90;;;17.20;25.80;;;;;;2221327;62;20659;-65
2021/11/30 04:02:58;0.00;0.00;0.62;0.00;0.00;0.62;3.07;1.50;;;17.20;25.80;;;;;;2222731;62;20444;-64
2021/11/30 04:05:43;0.00;0.00;0.62;0.00;0.00;0.62;2.57;1.37;;;17.10;25.80;;;;;;2222321;62;20407;-64
2021/11/30 04:08:28;0.00;0.00;0.62;0.00;0.00;0.62;2.90;1.50;;;17.10;25.90;;;;;;2221815;62;20366;-63
2021/11/30 04:11:13;0.00;0.00;0.62;0.00;0.00;0.62;2.23;1.70;;;17.10;25.90;;;;;;2222747;62;20394;-65
2021/11/30 04:13:58;0.00;0.00;0.62;0.00;0.00;0.62;1.93;1.40;;;17.10;26.00;;;;;;2222114;62;20389;-64
2021/11/30 04:16:44;0.00;0.00;0.62;0.00;0.00;0.62;2.50;1.97;;;17.10;26.10;;;;;;2222375;62;20363;-63
2021/11/30 04:19:28;0.00;0.00;0.62;0.00;0.00;0.62;3.23;2.10;;;17.00;26.00;;;;;;2222864;62;20776;-64
2021/11/30 04:22:13;0.00;0.00;0.62;0.00;0.00;0.62;2.37;1.80;;;17.00;26.00;;;;;;2221166;62;20393;-64
2021/11/30 04:24:58;0.00;0.00;0.62;0.00;0.00;0.62;2.50;1.90;;;16.90;26.00;;;;;;2222899;62;20405;-65
2021/11/30 04:27:43;0.00;0.00;0.62;0.00;0.00;0.62;2.10;1.70;;;16.90;26.00;;;;;;2222541;62;20408;-66
2021/11/30 04:30:28;0.00;0.00;0.62;0.00;0.00;0.62;3.30;1.93;;;16.90;26.00;;;;;;2221728;62;20416;-64
2021/11/30 04:33:15;0.00;0.00;0.62;0.00;0.00;0.62;2.77;2.03;;;16.80;25.90;;;;;;2222738;62;20398;-64
2021/11/30 04:36:00;0.00;0.00;0.62;0.00;0.00;0.62;4.60;2.10;;;16.80;26.00;;;;;;2221901;62;20743;-65
2021/11/30 04:38:45;0.00;0.00;0.62;0.00;0.00;0.62;2.93;2.23;;;16.80;26.00;;;;;;2222218;62;20367;-65
2021/11/30 04:41:29;0.00;0.00;0.62;0.00;0.00;0.62;2.90;2.10;;;16.80;26.60;;;;;;2222571;62;20386;-63
2021/11/30 04:44:16;0.00;0.00;0.62;0.00;0.00;0.62;3.20;2.07;;;16.80;26.00;;;;;;2221432;62;20408;-67
2021/11/30 04:47:06;0.00;0.00;0.62;0.00;0.00;0.62;3.10;2.27;;;16.70;26.00;;;;;;2222610;62;20363;-63
2021/11/30 04:50:01;0.00;0.00;0.62;0.00;0.00;0.62;2.50;1.93;;;16.70;26.00;;;;;;2222642;62;20372;-66
2021/11/30 04:52:48;0.00;0.00;0.62;0.00;0.00;0.62;3.20;2.10;;;16.70;26.00;;;;;;2222024;62;20429;-65
2021/11/30 04:55:33;0.00;0.00;0.62;0.00;0.00;0.62;6.40;2.27;;;16.60;25.90;;;;;;2222565;62;20416;-64
2021/11/30 04:58:19;0.00;0.00;0.62;0.00;0.00;0.62;3.30;2.00;;;16.60;26.00;;;;;;2221880;62;20413;-64
2021/11/30 05:01:04;0.00;0.00;0.62;0.00;0.00;0.62;3.00;2.03;;;16.60;26.00;;;;;;2222408;62;20496;-63
2021/11/30 05:03:50;0.00;0.00;0.62;0.00;0.00;0.62;2.40;1.97;;;16.60;26.10;;;;;;2222478;62;20374;-66
2021/11/30 05:06:37;0.00;0.00;0.62;0.00;0.00;0.62;2.60;1.90;;;16.50;26.00;;;;;;2221303;62;20409;-66
2021/11/30 05:09:21;0.00;0.00;0.62;0.00;0.00;0.62;2.30;1.70;;;16.50;26.00;;;;;;2222559;62;20746;-65
2021/11/30 05:12:08;0.00;0.00;0.62;0.00;0.00;0.62;3.60;2.57;;;16.50;26.00;;;;;;2222194;62;20272;-66
2021/11/30 05:14:52;0.00;0.00;0.62;0.00;0.00;0.62;2.40;2.00;;;16.50;26.00;;;;;;2221836;62;20456;-65
2021/11/30 05:17:38;0.00;0.00;0.62;0.00;0.00;0.62;2.97;1.80;;;16.50;26.40;;;;;;2222548;62;20434;-65
2021/11/30 05:20:23;0.00;0.00;0.62;0.00;0.00;0.62;3.10;2.10;;;16.40;25.60;;;;;;2221639;62;20363;-66
2021/11/30 05:23:12;0.00;0.00;0.62;0.00;0.00;0.62;3.53;1.83;;;16.40;25.60;;;;;;2222085;62;20396;-65
2021/11/30 05:26:04;0.00;0.00;0.62;0.00;0.00;0.62;3.73;2.07;;;16.30;25.60;;;;;;2222517;62;20423;-67
2021/11/30 05:28:49;0.00;0.00;0.62;0.00;0.00;0.62;2.43;1.67;;;16.30;25.70;;;;;;2221314;62;20374;-65
2021/11/30 05:31:34;0.00;0.00;0.62;0.00;0.00;0.62;1.87;1.37;;;16.20;25.80;;;;;;2221968;62;20405;-65
2021/11/30 05:34:20;0.00;0.00;0.62;0.00;0.00;0.62;2.70;1.67;;;16.20;25.80;;;;;;2222302;62;20892;-63
2021/11/30 05:37:06;0.00;0.00;0.62;0.00;0.00;0.62;2.17;1.63;;;16.10;25.80;;;;;;2221355;62;20363;-68
2021/11/30 05:39:53;0.00;0.00;0.62;0.00;0.00;0.62;2.37;1.77;;;16.10;25.90;;;;;;2224399;62;20370;-65
2021/11/30 05:42:38;0.00;0.00;0.62;0.00;0.00;0.62;1.97;1.40;;;16.10;25.90;;;;;;2221489;62;20517;-67
2021/11/30 05:45:25;0.00;0.00;0.62;0.00;0.00;0.62;1.93;1.50;;;16.00;25.90;;;;;;2221519;62;20371;-64
2021/11/30 05:48:11;0.00;0.00;0.62;0.00;0.00;0.62;3.00;1.63;;;16.00;25.90;;;;;;2220964;62;20423;-64
2021/11/30 05:50:57;0.00;0.00;0.62;0.00;0.00;0.62;1.77;1.40;;;16.00;26.00;;;;;;2221368;62;20396;-65
2021/11/30 05:53:43;0.00;0.00;0.62;0.00;0.00;0.62;1.80;1.30;;;16.00;26.00;;;;;;2222400;62;20517;-70
2021/11/30 05:56:30;0.00;0.00;0.62;0.00;0.00;0.62;1.90;1.40;;;16.00;26.00;;;;;;2222353;62;20370;-68
2021/11/30 05:59:17;0.00;0.00;0.62;0.00;0.00;0.62;1.60;1.20;;;16.00;26.00;;;;;;2222158;62;20519;-68
2021/11/30 06:02:04;0.00;0.00;0.62;0.00;0.00;0.62;1.70;1.27;;;15.90;26.00;;;;;;2225454;62;20824;-67
2021/11/30 06:04:49;0.00;0.00;0.62;0.00;0.00;0.62;1.50;1.20;;;15.90;26.10;;;;;;2225840;62;20366;-67
2021/11/30 06:07:35;0.00;0.00;0.62;0.00;0.00;0.62;2.07;1.57;;;15.90;26.20;;;;;;2225716;62;20399;-67
2021/11/30 06:10:21;0.00;0.00;0.62;0.00;0.00;0.62;1.30;0.87;;;15.90;26.30;;;;;;2226181;62;20366;-66
2021/11/30 06:13:09;0.00;0.00;0.62;0.00;0.00;0.62;1.80;1.10;;;15.90;26.40;;;;;;2225590;62;20378;-67
2021/11/30 06:15:54;0.00;0.00;0.62;0.00;0.00;0.62;1.70;0.93;;;16.00;26.50;;;;;;2226658;62;20723;-66
2021/11/30 06:18:40;0.00;0.00;0.62;0.00;0.00;0.62;1.70;1.10;;;16.00;26.50;;;;;;2226396;62;20601;-67
2021/11/30 06:21:26;0.00;0.00;0.62;0.00;0.00;0.62;1.93;1.10;;;16.10;26.50;;;;;;2225783;62;20382;-67
2021/11/30 06:24:12;0.00;0.00;0.62;0.00;0.00;0.62;1.90;0.90;;;16.20;26.60;;;;;;2226230;62;20366;-66
2021/11/30 06:26:58;0.00;0.00;0.62;0.00;0.00;0.62;1.73;1.00;;;16.20;26.60;;;;;;2225612;62;20640;-67
2021/11/30 06:29:45;0.00;0.00;0.62;0.00;0.00;0.62;1.87;1.20;;;16.30;26.70;;;;;;2226025;62;20366;-68
2021/11/30 06:32:32;0.00;0.00;0.62;0.00;0.00;0.62;1.90;1.00;;;16.30;26.70;;;;;;2226095;62;20397;-68
2021/11/30 06:35:18;0.00;0.00;0.62;0.00;0.00;0.62;1.80;0.90;;;16.40;26.80;;;;;;2225019;62;20791;-68
2021/11/30 06:38:04;0.00;0.00;0.62;0.00;0.00;0.62;1.70;0.90;;;16.40;26.70;;;;;;2226420;62;20465;-68
2021/11/30 06:40:51;0.00;0.00;0.62;0.00;0.00;0.62;1.40;0.70;;;16.50;26.80;;;;;;2227366;62;20660;-69
2021/11/30 06:43:37;0.00;0.00;0.62;0.00;0.00;0.62;1.57;0.90;;;16.60;26.80;;;;;;2227175;62;20390;-68
2021/11/30 06:46:24;0.00;0.00;0.62;0.00;0.00;0.62;2.73;1.00;;;16.60;26.80;;;;;;2226158;62;20588;-70
2021/11/30 06:49:10;0.00;0.00;0.62;0.00;0.00;0.62;1.47;0.70;;;16.70;26.80;;;;;;2226077;62;20708;-70
2021/11/30 06:51:56;0.00;0.00;0.62;0.00;0.00;0.62;1.40;0.77;;;16.70;26.80;;;;;;2225667;62;20398;-70
2021/11/30 06:54:47;0.00;0.00;0.62;0.00;0.00;0.62;5.40;1.10;;;16.80;26.80;;;;;;2226148;62;20361;-61
2021/11/30 06:57:34;0.00;0.00;0.62;0.00;0.00;0.62;1.40;0.90;;;16.90;26.80;;;;;;2225416;62;20451;-68
2021/11/30 07:00:22;0.00;0.00;0.62;0.00;0.00;0.62;1.50;0.90;;;16.90;26.80;;;;;;2226232;62;20354;-65
2021/11/30 07:03:10;0.00;0.00;0.62;0.00;0.00;0.62;1.40;0.80;;;16.90;26.80;;;;;;2225793;62;20370;-66
2021/11/30 07:06:00;0.00;0.00;0.62;0.00;0.00;0.62;1.70;0.97;;;17.00;26.90;;;;;;2225763;62;20366;-63
2021/11/30 07:14:26;0.00;0.00;0.62;0.00;0.00;0.62;1.57;0.70;;;17.10;26.80;;;;;;2226109;62;20370;-64
2021/11/30 07:17:11;0.00;0.00;0.62;0.00;0.00;0.62;2.00;1.13;;;17.10;26.70;;;;;;2226050;62;20366;-65
2021/11/30 07:19:57;0.00;0.00;0.62;0.00;0.00;0.62;1.73;1.00;;;17.20;26.70;;;;;;2225470;62;20585;-65
2021/11/30 07:22:42;0.00;0.00;0.62;0.00;0.00;0.62;1.37;0.80;;;17.20;26.70;;;;;;2225935;62;20391;-66
2021/11/30 07:25:27;0.00;0.00;0.62;0.00;0.00;0.62;1.97;0.87;;;17.20;26.70;;;;;;2226168;62;20406;-66
2021/11/30 07:28:12;0.00;0.00;0.62;0.00;0.00;0.62;1.50;0.87;;;17.30;26.70;;;;;;2225542;62;20395;-66
2021/11/30 07:30:59;0.00;0.00;0.62;0.00;0.00;0.62;1.60;0.90;;;17.30;26.70;;;;;;2225734;62;20577;-69
2021/11/30 07:33:47;0.00;0.00;0.62;0.00;0.00;0.62;1.37;0.80;;;17.40;26.70;;;;;;2225741;62;20405;-67
2021/11/30 07:36:35;0.00;0.00;0.62;0.00;0.00;0.62;1.33;0.90;;;17.40;26.70;;;;;;2226065;62;20363;-66
2021/11/30 07:39:20;0.00;0.00;0.62;0.00;0.00;0.62;1.57;0.87;;;17.40;27.20;;;;;;2226046;62;20469;-66
2021/11/30 07:42:06;0.00;0.00;0.62;0.00;0.00;0.62;1.30;0.80;;;17.50;26.70;;;;;;2227239;62;20434;-66
2021/11/30 07:44:51;0.00;0.00;0.62;0.00;0.00;0.62;1.50;0.80;;;17.50;26.70;;;;;;2225892;62;20729;-66
2021/11/30 07:47:36;0.00;0.00;0.62;0.00;0.00;0.62;2.30;1.03;;;17.50;26.70;;;;;;2226126;62;20370;-66
2021/11/30 07:50:21;0.00;0.00;0.62;0.00;0.00;0.62;2.10;1.03;;;17.60;26.70;;;;;;2225364;62;20366;-66
2021/11/30 07:53:07;0.00;0.00;0.62;0.00;0.00;0.62;1.33;0.73;;;17.60;26.70;;;;;;2225923;62;20454;-67
2021/11/30 07:55:54;0.00;0.00;0.62;0.00;0.00;0.62;1.70;1.03;;;17.60;26.70;;;;;;2225873;62;20366;-66
2021/11/30 07:58:39;0.00;0.00;0.62;0.00;0.00;0.62;1.30;0.70;;;17.60;26.60;;;;;;2225927;62;20771;-66
2021/11/30 08:01:24;0.00;0.00;0.62;0.00;0.00;0.62;1.37;0.83;;;17.70;26.60;;;;;;2225789;62;20385;-66
2021/11/30 08:04:09;0.00;0.00;0.62;0.00;0.00;0.62;1.30;0.70;;;17.70;26.60;;;;;;2225012;62;20362;-67
2021/11/30 08:06:53;0.00;0.00;0.62;0.00;0.00;0.62;1.40;0.80;;;17.70;26.50;;;;;;2226100;62;20710;-66
2021/11/30 08:09:39;0.00;0.00;0.62;0.00;0.00;0.62;1.30;0.70;;;17.70;26.50;;;;;;2226100;62;20450;-66
2021/11/30 08:12:24;0.00;0.00;0.62;0.00;0.00;0.62;1.30;0.70;;;17.70;26.50;;;;;;2225364;62;20393;-66
2021/11/30 08:15:11;0.00;0.00;0.62;0.00;0.00;0.62;1.50;0.70;;;17.80;26.50;;;;;;2225918;62;20488;-68
2021/11/30 08:17:55;0.00;0.00;0.62;0.00;0.00;0.62;1.20;0.70;;;17.80;26.50;;;;;;2225788;62;20614;-67
2021/11/30 08:20:40;0.00;0.00;0.62;0.00;0.00;0.62;1.60;0.90;;;17.80;26.50;;;;;;2225453;62;20457;-66
2021/11/30 08:23:26;0.00;0.00;0.62;0.00;0.00;0.62;1.40;0.80;;;17.80;26.50;;;;;;2225787;62;20395;-66
2021/11/30 08:26:12;0.00;0.00;0.62;0.00;0.00;0.62;1.30;0.83;;;17.90;26.50;;;;;;2225230;62;20411;-67
2021/11/30 08:28:57;0.00;0.00;0.62;0.00;0.00;0.62;1.33;0.90;;;17.90;26.50;;;;;;2226111;62;20415;-67
2021/11/30 08:31:42;0.00;0.00;0.62;0.00;0.00;0.62;1.40;0.80;;;17.90;26.50;;;;;;2225970;62;20398;-67
2021/11/30 08:34:27;0.00;0.00;0.62;0.00;0.00;0.62;1.20;0.70;;;17.90;27.00;;;;;;2225151;62;20370;-66
2021/11/30 08:37:12;0.00;0.00;0.62;0.00;0.00;0.62;1.40;0.67;;;17.90;26.50;;;;;;2225843;62;20382;-67
2021/11/30 08:39:57;0.00;0.00;0.62;0.00;0.00;0.62;1.30;0.70;;;18.00;26.50;;;;;;2225680;62;20365;-67
2021/11/30 08:42:44;0.00;0.00;0.62;0.00;0.00;0.62;1.60;0.80;;;17.90;26.40;;;;;;2225822;62;20378;-67
2021/11/30 08:45:28;0.00;0.00;0.62;0.00;0.00;0.62;1.50;0.80;;;18.00;26.50;;;;;;2226410;62;20397;-67
2021/11/30 08:48:13;0.00;0.00;0.62;0.00;0.00;0.62;1.40;0.80;;;18.00;26.50;;;;;;2225761;62;20402;-67
2021/11/30 08:51:00;0.00;0.00;0.62;0.00;0.00;0.62;1.40;0.90;;;18.00;26.50;;;;;;2226649;62;20359;-67
2021/11/30 08:53:45;0.00;0.00;0.62;0.00;0.00;0.62;1.57;0.77;;;18.00;26.40;;;;;;2226531;62;20546;-67
2021/11/30 08:56:29;0.00;0.00;0.62;0.00;0.00;0.62;1.40;0.80;;;18.00;26.40;;;;;;2225827;62;20362;-67
2021/11/30 08:59:15;0.00;0.00;0.62;0.00;0.00;0.62;1.50;0.80;;;18.00;26.40;;;;;;2226445;62;20366;-67
2021/11/30 09:02:01;0.00;0.00;0.62;0.00;0.00;0.62;1.40;0.80;;;18.00;26.40;;;;;;2226094;62;20416;-67
2021/11/30 09:04:47;0.00;0.00;0.62;0.00;0.00;0.62;1.30;0.70;;;18.10;26.50;;;;;;2225762;62;20415;-67
2021/11/30 09:07:32;0.00;0.00;0.62;0.00;0.00;0.62;1.50;0.70;;;18.10;26.50;;;;;;2226282;62;20388;-66
2021/11/30 09:10:18;0.00;0.00;0.62;0.00;0.00;0.62;1.40;0.70;;;18.10;26.40;;;;;;2225345;62;20634;-67
2021/11/30 09:13:03;0.00;0.00;0.62;0.00;0.00;0.62;1.40;0.70;;;18.10;26.40;;;;;;2226565;62;20397;-67
2021/11/30 09:15:50;0.00;0.00;0.62;0.00;0.00;0.62;1.30;0.77;;;18.10;26.40;;;;;;2226364;62;20410;-67
2021/11/30 09:18:35;0.00;0.00;0.62;0.00;0.00;0.62;1.50;0.70;;;18.10;26.40;;;;;;2225810;62;20767;-67
2021/11/30 09:21:19;0.00;0.00;0.62;0.00;0.00;0.62;1.40;0.63;;;18.10;26.40;;;;;;2226287;62;20390;-67
2021/11/30 09:24:04;0.00;0.00;0.62;0.00;0.00;0.62;1.30;0.87;;;18.10;26.40;;;;;;2225998;62;20401;-67
2021/11/30 09:26:49;0.00;0.00;0.62;0.00;0.00;0.62;1.30;0.60;;;18.20;26.40;;;;;;2225988;62;20443;-68
2021/11/30 09:29:34;0.00;0.00;0.62;0.00;0.00;0.62;1.43;0.80;;;18.20;26.40;;;;;;2226320;62;20445;-67
2021/11/30 09:32:24;0.00;0.00;0.62;0.00;0.00;0.62;1.50;0.80;;;18.20;26.40;;;;;;2225991;62;20389;-67
2021/11/30 09:35:13;0.00;0.00;0.62;0.00;0.00;0.62;1.37;0.80;;;18.20;26.40;;;;;;2226451;62;20477;-67
2021/11/30 09:37:58;0.00;0.00;0.62;0.00;0.00;0.62;1.30;0.70;;;18.20;26.40;;;;;;2228532;62;20495;-67
2021/11/30 09:40:43;0.00;0.00;0.62;0.00;0.00;0.62;1.33;0.70;;;18.20;26.40;;;;;;2225483;62;20411;-67
2021/11/30 09:43:31;0.00;0.00;0.62;0.00;0.00;0.62;2.17;0.73;;;18.20;26.40;;;;;;2226290;62;20435;-66
2021/11/30 09:46:16;0.00;0.00;0.62;0.00;0.00;0.62;1.50;0.73;;;18.20;26.40;;;;;;2226173;62;20361;-66
2021/11/30 09:49:03;0.00;0.00;0.62;0.00;0.00;0.62;1.30;0.70;;;18.30;26.50;;;;;;2225864;62;20513;-66
2021/11/30 09:51:47;0.00;0.00;0.62;0.00;0.00;0.62;1.30;0.60;;;18.30;26.50;;;;;;2226138;62;20424;-65
2021/11/30 09:54:32;0.00;0.00;0.62;0.00;0.00;0.62;1.20;0.60;;;18.30;26.40;;;;;;2225926;62;20418;-65
2021/11/30 09:57:17;0.00;0.00;0.62;0.00;0.00;0.62;2.23;0.70;;;18.30;26.40;;;;;;2226312;62;20362;-67
2021/11/30 10:00:05;0.00;0.00;0.62;0.00;0.00;0.62;1.30;0.63;;;18.30;26.40;;;;;;2225796;62;20374;-67
2021/11/30 10:02:54;0.00;0.00;0.62;0.00;0.00;0.62;1.87;0.70;;;18.30;26.50;;;;;;2225369;62;20390;-67
2021/11/30 10:05:41;0.00;0.00;0.62;0.00;0.00;0.62;1.20;0.60;;;18.30;26.40;;;;;;2226171;62;20883;-67
2021/11/30 10:08:32;0.00;0.00;0.62;0.00;0.00;0.62;1.20;0.60;;;18.30;26.40;;;;;;2226198;62;20395;-67
2021/11/30 10:11:34;0.00;0.00;0.62;0.00;0.00;0.62;1.50;0.70;;;18.40;26.50;;;;;;2225704;62;20394;-66
2021/11/30 10:14:24;0.00;0.00;0.62;0.00;0.00;0.62;1.20;0.60;;;18.40;26.50;;;;;;2226134;62;20596;-67
2021/11/30 10:17:16;0.00;0.00;0.62;0.00;0.00;0.62;1.20;0.70;;;18.40;26.50;;;;;;2225741;62;20442;-67
2021/11/30 10:20:07;0.00;0.00;0.62;0.00;0.00;0.62;1.70;0.60;;;18.40;26.50;;;;;;2226330;62;20362;-67
2021/11/30 10:22:56;0.00;0.00;0.62;0.00;0.00;0.62;1.30;0.80;;;18.40;26.50;;;;;;2226361;62;20405;-67
2021/11/30 10:25:41;0.00;0.00;0.62;0.00;0.00;0.62;1.30;0.80;;;18.40;26.50;;;;;;2225812;62;20375;-67
2021/11/30 10:28:28;0.00;0.00;0.62;0.00;0.00;0.62;1.27;0.60;;;18.40;26.40;;;;;;2226080;62;20403;-67
2021/11/30 10:31:12;0.00;0.00;0.62;0.00;0.00;0.62;1.20;0.70;;;18.40;26.40;;;;;;2225936;62;20382;-67
2021/11/30 10:33:57;0.00;0.00;0.62;0.00;0.00;0.62;1.30;0.70;;;18.40;26.40;;;;;;2226064;62;20401;-67
2021/11/30 10:36:48;0.00;0.00;0.62;0.00;0.00;0.62;1.57;0.73;;;18.50;26.50;;;;;;2226201;62;20757;-67
2021/11/30 10:39:38;0.00;0.00;0.62;0.00;0.00;0.62;1.20;0.60;;;18.50;26.50;;;;;;2225464;62;20374;-67
2021/11/30 10:42:26;0.00;0.00;0.62;0.00;0.00;0.62;1.20;0.60;;;18.50;27.00;;;;;;2226010;62;20407;-67
2021/11/30 10:45:11;0.00;0.00;0.62;0.00;0.00;0.62;1.40;0.70;;;18.50;26.50;;;;;;2226360;62;20370;-67
2021/11/30 10:48:07;0.00;0.00;0.62;0.00;0.00;0.62;1.43;0.70;;;18.50;26.50;;;;;;2225606;62;20621;-67
2021/11/30 10:50:58;0.00;0.00;0.62;0.00;0.00;0.62;1.43;0.80;;;18.50;26.50;;;;;;2226022;62;20362;-67
2021/11/30 10:53:46;0.00;0.00;0.62;0.00;0.00;0.62;1.33;0.70;;;18.60;26.60;;;;;;2225804;62;20409;-67
2021/11/30 10:56:32;0.00;0.00;0.62;0.00;0.00;0.62;1.67;0.80;;;18.60;26.50;;;;;;2226112;62;20374;-68
2021/11/30 10:59:21;0.00;0.00;0.62;0.00;0.00;0.62;1.70;0.70;;;18.60;26.50;;;;;;2226246;62;20385;-67
2021/11/30 11:02:06;0.00;0.00;0.62;0.00;0.00;0.62;1.30;0.60;;;18.60;26.50;;;;;;2225296;62;20394;-67
2021/11/30 11:04:50;0.00;0.00;0.62;0.00;0.00;0.62;1.47;0.80;;;18.60;26.60;;;;;;2225813;62;20358;-67